Time;durP1;ratioP1;P1;durP2;ratioP2;P2;SDS_P1;SDS_P2;PMS_P1;PMS_P2;Temp;Humidity;BMP_temperature;BMP_pressure;BME280_temperature;BME280_humidity;BME280_pressure;Samples;Min_cycle;Max_cycle;Signal;HPM_P1;HPM_P2
2023/01/09 04:52:55;;;;;;;17.45;10.77;;;;;;;7.31;100.00;99594.50;5409603;28;20579;-84
2023/01/09 04:55:58;;;;;;;16.85;10.05;;;;;;;7.07;100.00;99598.16;5324678;33;34058;-84
2023/01/09 04:59:02;;;;;;;18.33;10.75;;;;;;;6.98;100.00;99599.22;5324764;33;34102;-84
2023/01/09 05:02:05;;;;;;;19.40;10.13;;;;;;;6.88;100.00;99594.06;5324600;33;33541;-84
2023/01/09 05:05:09;;;;;;;17.65;10.52;;;;;;;6.83;100.00;99583.03;5322215;33;34808;-83
2023/01/09 05:08:13;;;;;;;18.12;10.70;;;;;;;6.84;100.00;99579.34;5327446;33;33777;-84
2023/01/09 05:11:16;;;;;;;16.12;10.15;;;;;;;6.89;100.00;99586.88;5329514;33;33806;-83
2023/01/09 05:14:19;;;;;;;16.77;10.35;;;;;;;6.88;100.00;99580.69;5328381;33;34878;-83
2023/01/09 05:17:22;;;;;;;19.25;10.63;;;;;;;6.91;100.00;99587.53;5326089;33;33765;-83
2023/01/09 05:20:26;;;;;;;21.10;11.27;;;;;;;6.92;100.00;99578.50;5311429;33;32284;-83
2023/01/09 05:23:28;;;;;;;19.42;11.55;;;;;;;6.95;100.00;99581.66;5311249;33;33092;-84
2023/01/09 05:26:31;;;;;;;17.80;10.18;;;;;;;6.98;100.00;99575.94;5323464;33;34774;-83
2023/01/09 05:29:34;;;;;;;19.37;11.35;;;;;;;6.95;100.00;99576.31;5324274;33;33900;-83
2023/01/09 05:32:37;;;;;;;20.17;11.30;;;;;;;7.05;100.00;99573.44;5323602;33;33986;-83
2023/01/09 05:35:39;;;;;;;18.33;10.60;;;;;;;7.06;100.00;99563.56;5325583;33;34231;-84
2023/01/09 05:38:42;;;;;;;18.77;11.18;;;;;;;7.06;100.00;99568.91;5312545;33;34359;-84
2023/01/09 05:41:45;;;;;;;19.45;11.82;;;;;;;7.04;100.00;99564.53;5325384;33;33759;-84
2023/01/09 05:44:48;;;;;;;20.33;12.00;;;;;;;7.01;100.00;99567.56;5324360;33;34762;-84
2023/01/09 05:47:51;;;;;;;21.00;11.55;;;;;;;7.00;100.00;99557.88;5324950;33;34020;-84
2023/01/09 05:50:54;;;;;;;20.62;11.63;;;;;;;7.01;100.00;99556.88;5324473;33;34073;-83
2023/01/09 05:53:58;;;;;;;18.77;11.15;;;;;;;7.02;100.00;99557.72;5312381;33;34064;-83
2023/01/09 05:57:01;;;;;;;17.67;11.68;;;;;;;7.04;100.00;99556.50;5296404;33;32722;-84
2023/01/09 06:00:04;;;;;;;17.65;11.07;;;;;;;7.07;100.00;99560.69;5310917;33;34451;-83
2023/01/09 06:03:08;;;;;;;20.65;12.23;;;;;;;7.12;100.00;99571.72;5308662;33;34272;-84
2023/01/09 06:06:11;;;;;;;21.27;12.07;;;;;;;7.11;100.00;99578.09;5306889;33;35359;-84
2023/01/09 06:09:13;;;;;;;19.95;11.73;;;;;;;7.15;100.00;99565.19;5306617;33;34801;-84
2023/01/09 06:12:16;;;;;;;19.83;11.93;;;;;;;7.24;100.00;99562.28;5306648;33;34850;-84
2023/01/09 06:15:19;;;;;;;19.27;11.02;;;;;;;7.22;100.00;99566.94;5306716;33;34002;-84
2023/01/09 06:18:22;;;;;;;20.60;12.13;;;;;;;7.25;100.00;99560.41;5306419;33;34439;-84
2023/01/09 06:21:28;;;;;;;20.25;12.10;;;;;;;7.39;100.00;99562.34;5306800;33;33673;-84
2023/01/09 06:24:30;;;;;;;19.55;11.48;;;;;;;7.32;100.00;99557.88;5306971;33;34086;-84
2023/01/09 06:27:36;;;;;;;18.60;10.77;;;;;;;7.33;100.00;99571.09;5294235;33;33684;-84
2023/01/09 06:30:39;;;;;;;17.83;11.05;;;;;;;7.38;100.00;99578.59;5296697;33;33787;-84
2023/01/09 06:33:42;;;;;;;20.75;11.50;;;;;;;7.50;100.00;99579.84;5276032;33;32410;-84
2023/01/09 06:36:45;;;;;;;20.05;11.07;;;;;;;7.47;100.00;99574.84;5289368;33;34118;-84
2023/01/09 06:39:48;;;;;;;15.48;10.15;;;;;;;7.68;100.00;99580.38;5289661;33;33677;-84
2023/01/09 06:42:51;;;;;;;22.17;11.10;;;;;;;7.70;100.00;99591.78;5289426;33;34097;-84
2023/01/09 06:45:53;;;;;;;17.02;9.63;;;;;;;7.58;100.00;99597.72;5291176;33;33867;-84
2023/01/09 06:48:56;;;;;;;18.85;10.13;;;;;;;7.54;100.00;99589.19;5291705;33;33633;-84
2023/01/09 06:52:04;;;;;;;17.10;10.13;;;;;;;7.45;100.00;99598.28;5292412;33;34254;-85
2023/01/09 06:55:08;;;;;;;17.67;11.02;;;;;;;7.34;100.00;99587.97;5294212;33;34983;-84
2023/01/09 06:58:11;;;;;;;18.75;11.18;;;;;;;7.30;100.00;99603.56;5281560;33;32394;-89
2023/01/09 07:01:14;;;;;;;19.30;11.12;;;;;;;7.22;100.00;99595.56;5301993;33;272385;-89
2023/01/09 07:04:17;;;;;;;18.10;10.07;;;;;;;7.21;100.00;99592.06;5307911;33;33520;-89
2023/01/09 07:07:21;;;;;;;19.17;10.80;;;;;;;7.24;100.00;99590.88;5310961;33;33828;-85
2023/01/09 07:10:24;;;;;;;18.95;10.80;;;;;;;7.16;100.00;99594.44;5308173;33;34045;-85
2023/01/09 07:13:27;;;;;;;19.52;10.02;;;;;;;7.19;100.00;99590.56;5308400;33;34648;-85
2023/01/09 07:16:29;;;;;;;16.80;9.98;;;;;;;7.22;100.00;99590.22;5308003;33;34074;-84
2023/01/09 07:19:32;;;;;;;17.52;10.15;;;;;;;7.21;100.00;99584.03;5308037;33;34859;-84
2023/01/09 07:22:35;;;;;;;16.83;9.93;;;;;;;7.13;100.00;99585.91;5309539;33;35382;-84
2023/01/09 07:25:40;;;;;;;20.42;11.18;;;;;;;7.13;100.00;99578.72;5306824;33;34502;-85
2023/01/09 07:28:43;;;;;;;15.65;9.05;;;;;;;7.17;100.00;99576.56;5308670;33;34792;-84
2023/01/09 07:31:46;;;;;;;18.70;10.95;;;;;;;7.18;100.00;99586.25;5308548;33;34163;-84
2023/01/09 07:34:50;;;;;;;17.65;10.10;;;;;;;7.19;100.00;99582.53;5309252;33;34260;-84
2023/01/09 07:37:53;;;;;;;17.05;9.75;;;;;;;7.22;100.00;99583.03;5308366;33;34598;-84
2023/01/09 07:40:56;;;;;;;17.75;10.82;;;;;;;7.14;100.00;99584.94;5303681;33;34959;-84
2023/01/09 07:43:59;;;;;;;17.92;10.20;;;;;;;7.22;100.00;99572.31;5307101;33;33751;-84
2023/01/09 07:47:02;;;;;;;17.92;10.55;;;;;;;7.31;100.00;99570.41;5308671;33;35400;-84
2023/01/09 07:50:05;;;;;;;15.70;9.93;;;;;;;7.34;100.00;99558.53;5304970;33;34082;-84
2023/01/09 07:53:08;;;;;;;16.30;9.65;;;;;;;7.32;100.00;99564.06;5295055;33;33663;-84
2023/01/09 07:56:11;;;;;;;18.50;10.23;;;;;;;7.33;100.00;99568.41;5299416;33;34244;-84
2023/01/09 07:59:13;;;;;;;14.98;9.90;;;;;;;7.46;100.00;99559.81;5295629;33;32980;-84
2023/01/09 08:02:17;;;;;;;16.37;9.95;;;;;;;7.39;100.00;99559.66;5308035;33;34048;-84
2023/01/09 08:05:20;;;;;;;19.00;10.05;;;;;;;7.33;100.00;99568.41;5306313;33;33922;-84
2023/01/09 08:08:23;;;;;;;19.37;10.80;;;;;;;7.39;100.00;99557.00;5302937;33;34274;-84
2023/01/09 08:11:26;;;;;;;17.50;10.00;;;;;;;7.27;100.00;99556.56;5288035;33;33704;-84
2023/01/09 08:14:34;;;;;;;15.70;9.45;;;;;;;7.24;100.00;99551.56;5302685;33;34894;-84
2023/01/09 08:17:43;;;;;;;18.23;9.98;;;;;;;7.27;100.00;99558.41;5303043;33;33218;-84
2023/01/09 08:20:49;;;;;;;17.42;9.52;;;;;;;7.29;100.00;99551.03;5301814;33;33794;-83
2023/01/09 08:23:52;;;;;;;16.10;9.32;;;;;;;7.24;100.00;99558.75;5302306;33;34989;-83
2023/01/09 08:26:55;;;;;;;16.10;10.20;;;;;;;7.15;100.00;99551.78;5303738;33;33855;-84
2023/01/09 08:29:58;;;;;;;18.05;9.68;;;;;;;7.02;100.00;99539.81;5306133;33;34910;-83
2023/01/09 08:33:01;;;;;;;19.37;9.60;;;;;;;6.80;100.00;99536.06;5306860;33;34912;-83
2023/01/09 08:36:04;;;;;;;22.73;9.90;;;;;;;6.70;100.00;99550.66;5300712;33;34224;-83
2023/01/09 08:39:08;;;;;;;17.77;10.35;;;;;;;6.48;100.00;99574.47;5304322;33;33545;-84
2023/01/09 08:48:55;;;;;;;17.92;9.98;;;;;;;6.08;100.00;99554.00;5308250;33;35362;-88
2023/01/09 08:51:59;;;;;;;17.17;9.73;;;;;;;5.94;100.00;99560.00;5309108;33;33995;-84
2023/01/09 08:55:02;;;;;;;16.17;9.80;;;;;;;6.09;100.00;99561.03;5311517;33;33630;-84
2023/01/09 08:58:05;;;;;;;19.42;11.60;;;;;;;6.05;100.00;99562.34;5313819;33;32617;-84
2023/01/09 09:01:08;;;;;;;19.52;10.40;;;;;;;6.03;100.00;99562.53;5313694;33;34189;-84
2023/01/09 09:04:10;;;;;;;18.77;10.82;;;;;;;5.87;100.00;99579.34;5311503;33;35206;-84
2023/01/09 09:07:13;;;;;;;19.12;10.43;;;;;;;5.87;100.00;99575.84;5305693;33;34856;-84
2023/01/09 09:10:16;;;;;;;20.35;10.52;;;;;;;5.98;100.00;99566.72;5308353;33;34761;-84
2023/01/09 09:13:20;;;;;;;21.33;11.27;;;;;;;5.79;100.00;99550.00;5291633;33;33163;-84
2023/01/09 09:16:24;;;;;;;19.25;11.70;;;;;;;5.68;100.00;99535.13;5292382;33;34059;-84
2023/01/09 09:19:27;;;;;;;19.80;11.00;;;;;;;5.63;100.00;99532.12;5307308;33;33689;-83
2023/01/09 09:22:30;;;;;;;21.83;11.27;;;;;;;5.54;100.00;99533.12;5298319;33;33652;-84
2023/01/09 09:25:33;;;;;;;21.02;10.57;;;;;;;5.61;100.00;99526.09;5296112;33;33406;-83
2023/01/09 09:28:36;;;;;;;19.25;11.93;;;;;;;5.64;100.00;99525.75;5314723;33;33760;-83
2023/01/09 09:31:39;;;;;;;19.10;11.07;;;;;;;5.63;100.00;99524.09;5299292;33;32654;-84
2023/01/09 09:34:42;;;;;;;20.35;10.98;;;;;;;5.61;100.00;99525.28;5302997;33;34248;-83
2023/01/09 09:38:00;;;;;;;21.08;11.68;;;;;;;5.74;100.00;99506.94;5292043;33;33975;-84
2023/01/09 09:45:05;;;;;;;20.37;10.95;;;;;;;5.79;100.00;99507.25;5292669;33;32184;-83
2023/01/09 09:48:28;;;;;;;23.30;12.27;;;;;;;5.77;100.00;99495.91;5306065;33;34117;-83
2023/01/09 09:51:46;;;;;;;22.35;12.43;;;;;;;5.79;100.00;99501.91;5308161;33;34835;-87
2023/01/09 09:54:50;;;;;;;22.45;12.55;;;;;;;5.68;100.00;99502.25;5307464;33;34665;-83
2023/01/09 09:57:55;;;;;;;19.67;12.15;;;;;;;5.75;100.00;99494.41;5302853;33;35071;-83
2023/01/09 10:01:00;;;;;;;20.00;11.23;;;;;;;5.68;100.00;99479.06;5305607;33;33650;-83
2023/01/09 10:04:10;;;;;;;20.70;12.40;;;;;;;5.55;100.00;99493.91;5303766;33;34321;-83
2023/01/09 10:07:28;;;;;;;19.17;11.80;;;;;;;5.58;100.00;99510.41;5303219;33;34057;-83
2023/01/09 10:10:39;;;;;;;20.88;11.85;;;;;;;5.51;100.00;99497.94;5298635;33;34095;-82
2023/01/09 10:17:48;;;;;;;21.85;12.23;;;;;;;5.50;100.00;99489.09;5304152;33;34375;-82
2023/01/09 10:20:57;;;;;;;20.62;11.75;;;;;;;5.49;100.00;99479.38;5254223;33;33328;-82
2023/01/09 10:24:26;;;;;;;26.33;12.02;;;;;;;5.53;100.00;99488.75;5308140;33;33709;-82
2023/01/09 10:28:03;;;;;;;18.62;11.18;;;;;;;5.46;100.00;99488.56;5303012;33;34403;-87
2023/01/09 10:31:22;;;;;;;26.62;12.20;;;;;;;5.38;100.00;99483.25;5305610;33;34299;-82
2023/01/09 10:34:32;;;;;;;22.10;12.98;;;;;;;5.33;100.00;99477.56;5288653;33;31862;-82
2023/01/09 10:37:43;;;;;;;29.12;12.52;;;;;;;5.42;100.00;99465.88;5293136;33;32438;-82
2023/01/09 10:40:54;;;;;;;23.83;12.27;;;;;;;5.47;100.00;99465.41;5304002;33;34447;-82
2023/01/09 10:44:06;;;;;;;21.58;13.07;;;;;;;5.37;100.00;99467.37;5291303;33;32728;-81
2023/01/09 10:47:33;;;;;;;21.15;12.90;;;;;;;5.33;100.00;99458.06;5305364;33;34352;-82
2023/01/09 10:50:40;;;;;;;22.25;12.60;;;;;;;5.28;100.00;99457.72;5307488;33;33885;-80
2023/01/09 10:53:49;;;;;;;25.23;13.25;;;;;;;5.35;100.00;99462.22;5305397;33;33950;-82
2023/01/09 10:57:04;;;;;;;22.37;12.68;;;;;;;5.46;100.00;99455.69;5288905;33;33107;-80
2023/01/09 11:00:14;;;;;;;24.00;13.13;;;;;;;5.53;100.00;99454.03;5304957;33;34163;-80
2023/01/09 11:03:22;;;;;;;22.60;12.52;;;;;;;5.39;100.00;99438.69;5294790;33;32329;-85
2023/01/09 11:06:35;;;;;;;28.65;14.93;;;;;;;5.35;100.00;99437.34;5303950;33;33883;-85
2023/01/09 11:10:00;;;;;;;21.20;13.23;;;;;;;5.30;100.00;99432.53;5302703;33;34845;-81
2023/01/09 11:13:17;;;;;;;22.67;13.18;;;;;;;5.27;100.00;99424.84;5292518;33;32359;-80
2023/01/09 11:16:22;;;;;;;24.92;14.38;;;;;;;5.25;100.00;99420.69;5304966;33;34381;-81
2023/01/09 11:19:26;;;;;;;23.60;13.75;;;;;;;5.28;100.00;99410.50;5283089;33;32634;-81
2023/01/09 11:22:41;;;;;;;23.55;13.62;;;;;;;5.32;100.00;99398.47;5303429;33;34809;-81
2023/01/09 11:25:52;;;;;;;25.90;15.20;;;;;;;5.42;100.00;99401.00;5304063;33;34317;-81
2023/01/09 11:29:09;;;;;;;23.30;13.85;;;;;;;5.42;100.00;99393.00;5292647;33;32741;-81
2023/01/09 11:32:22;;;;;;;23.95;14.05;;;;;;;5.53;100.00;99397.13;5320309;33;33925;-81
2023/01/09 11:35:31;;;;;;;22.62;13.38;;;;;;;5.51;100.00;99404.50;5320534;33;34825;-81
2023/01/09 11:38:52;;;;;;;23.15;14.43;;;;;;;5.50;100.00;99400.13;5309058;33;33963;-81
2023/01/09 11:42:01;;;;;;;22.17;13.75;;;;;;;5.49;100.00;99393.13;5305779;33;34162;-81
2023/01/09 11:45:04;;;;;;;25.35;14.07;;;;;;;5.47;100.00;99396.00;5317893;33;34391;-80
2023/01/09 11:48:16;;;;;;;22.67;13.62;;;;;;;5.58;100.00;99389.44;5316662;33;35439;-85
2023/01/09 11:51:22;;;;;;;20.08;13.02;;;;;;;5.58;100.00;99392.13;5301628;33;35414;-81
2023/01/09 11:54:30;;;;;;;25.42;14.38;;;;;;;5.59;100.00;99388.47;5301848;33;34742;-81
2023/01/09 11:57:33;;;;;;;22.80;13.40;;;;;;;5.60;100.00;99382.94;5300534;33;34167;-81
2023/01/09 12:01:08;;;;;;;27.95;15.70;;;;;;;5.71;100.00;99386.25;5298303;33;33100;-81
2023/01/09 12:04:43;;;;;;;24.73;12.45;;;;;;;5.70;100.00;99385.41;5295832;33;33386;-81
2023/01/09 12:08:04;;;;;;;25.40;13.80;;;;;;;5.63;100.00;99387.09;5307063;33;33982;-80
2023/01/09 12:11:14;;;;;;;24.73;13.98;;;;;;;5.65;100.00;99377.09;5305110;33;33770;-80
2023/01/09 12:14:28;;;;;;;22.90;14.05;;;;;;;5.67;100.00;99372.41;5308023;33;34740;-81
2023/01/09 12:18:02;;;;;;;24.05;12.93;;;;;;;5.61;100.00;99368.56;5290018;33;34636;-80
2023/01/09 12:21:27;;;;;;;25.65;15.60;;;;;;;5.60;100.00;99358.06;5304730;33;34846;-85
2023/01/09 12:25:05;;;;;;;24.23;13.65;;;;;;;5.60;100.00;99358.06;5289852;33;34013;-81
2023/01/09 12:28:35;;;;;;;24.33;15.05;;;;;;;5.70;100.00;99356.03;5299563;33;35380;-81
2023/01/09 12:31:38;;;;;;;25.92;14.35;;;;;;;5.73;100.00;99363.69;5308960;33;33976;-82
2023/01/09 12:34:58;;;;;;;25.70;15.57;;;;;;;5.76;100.00;99359.84;5316822;33;33659;-81
2023/01/09 12:38:48;;;;;;;25.08;13.95;;;;;;;5.82;100.00;99364.50;5313486;33;33683;-82
2023/01/09 12:42:22;;;;;;;25.80;15.73;;;;;;;5.80;100.00;99356.69;5247990;33;33589;-81
2023/01/09 12:45:37;;;;;;;26.70;13.98;;;;;;;5.74;100.00;99361.88;5272666;33;34942;-81
2023/01/09 12:49:08;;;;;;;25.20;13.70;;;;;;;5.77;100.00;99350.84;5308141;33;33586;-81
2023/01/09 12:52:19;;;;;;;27.42;16.90;;;;;;;5.78;100.00;99331.16;5280123;33;33275;-81
2023/01/09 12:55:26;;;;;;;28.12;15.50;;;;;;;5.81;100.00;99325.47;5293416;33;32776;-81
2023/01/09 12:58:40;;;;;;;27.10;15.43;;;;;;;5.80;100.00;99321.97;5306277;33;35009;-81
2023/01/09 13:01:47;;;;;;;25.42;14.98;;;;;;;5.81;100.00;99325.47;5305350;33;34105;-81
2023/01/09 13:04:56;;;;;;;26.62;15.80;;;;;;;6.00;100.00;99317.06;5306344;33;33667;-81
2023/01/09 13:08:08;;;;;;;26.30;15.37;;;;;;;6.10;100.00;99314.16;5292994;33;32284;-81
2023/01/09 13:11:23;;;;;;;24.95;16.25;;;;;;;5.95;100.00;99318.59;5305724;33;35273;-81
2023/01/09 13:14:46;;;;;;;27.92;16.25;;;;;;;5.97;100.00;99316.56;5290629;33;32297;-81
2023/01/09 13:17:55;;;;;;;29.65;16.70;;;;;;;5.88;100.00;99316.59;5293344;33;33278;-86
2023/01/09 13:21:00;;;;;;;31.67;15.75;;;;;;;5.85;100.00;99314.28;5307186;33;33628;-83
2023/01/09 13:24:12;;;;;;;33.47;15.73;;;;;;;5.82;100.00;99311.09;5305921;33;33803;-82
2023/01/09 13:27:24;;;;;;;30.50;16.90;;;;;;;5.86;100.00;99309.75;5309890;33;34020;-81
2023/01/09 13:30:38;;;;;;;29.52;18.48;;;;;;;5.90;100.00;99306.53;5305797;33;34463;-81
2023/01/09 13:33:45;;;;;;;29.80;18.60;;;;;;;5.88;100.00;99307.75;5292860;33;33391;-81
2023/01/09 13:36:51;;;;;;;28.62;18.35;;;;;;;5.89;100.00;99323.59;5305484;33;35333;-81
2023/01/09 13:40:20;;;;;;;30.35;17.02;;;;;;;5.99;100.00;99320.72;5305819;33;33639;-81
2023/01/09 13:43:23;;;;;;;28.87;17.25;;;;;;;6.01;100.00;99317.91;5303752;33;33794;-81
2023/01/09 13:46:36;;;;;;;30.27;16.67;;;;;;;5.95;100.00;99327.44;5292592;33;32448;-81
2023/01/09 13:49:39;;;;;;;29.37;16.95;;;;;;;5.90;100.00;99319.06;5306202;33;34772;-81
2023/01/09 13:52:42;;;;;;;31.02;18.12;;;;;;;5.90;100.00;99329.75;5304571;33;34112;-81
2023/01/09 13:55:58;;;;;;;30.00;17.83;;;;;;;5.91;100.00;99323.44;5308475;33;34776;-80
2023/01/09 13:59:01;;;;;;;29.85;18.33;;;;;;;5.89;100.00;99322.75;5306508;33;34839;-80
2023/01/09 14:02:40;;;;;;;31.23;17.83;;;;;;;5.94;100.00;99319.59;5306720;33;33783;-80
2023/01/09 14:05:42;;;;;;;28.60;18.77;;;;;;;5.97;100.00;99324.56;5312419;33;35079;-84
2023/01/09 14:08:48;;;;;;;33.17;18.15;;;;;;;5.94;100.00;99331.13;5316712;33;34486;-85
2023/01/09 14:12:03;;;;;;;28.12;17.52;;;;;;;5.94;100.00;99333.81;5310935;33;35240;-81
2023/01/09 14:15:29;;;;;;;29.27;16.27;;;;;;;5.97;100.00;99335.25;5303078;33;34027;-80
2023/01/09 14:18:36;;;;;;;28.33;18.05;;;;;;;5.99;100.00;99338.59;5306023;33;34893;-80
2023/01/09 14:21:49;;;;;;;27.37;16.52;;;;;;;5.91;100.00;99326.94;5297379;33;32230;-81
2023/01/09 14:24:55;;;;;;;32.42;18.95;;;;;;;5.87;100.00;99324.75;5295837;33;32643;-82
2023/01/09 14:27:57;;;;;;;27.55;18.23;;;;;;;5.84;100.00;99320.59;5298024;33;32488;-81
2023/01/09 14:31:04;;;;;;;32.72;19.08;;;;;;;5.90;100.00;99322.56;5304432;33;32449;-81
2023/01/09 14:34:26;;;;;;;30.45;17.70;;;;;;;5.94;100.00;99323.13;5316540;33;33960;-81
2023/01/09 14:37:36;;;;;;;29.52;18.55;;;;;;;5.93;100.00;99324.09;5300654;33;35215;-82
2023/01/09 14:40:52;;;;;;;28.05;17.23;;;;;;;5.91;100.00;99326.94;5297081;33;33147;-82
2023/01/09 14:44:02;;;;;;;31.95;18.10;;;;;;;5.93;100.00;99323.25;5309940;33;34224;-81
2023/01/09 14:47:15;;;;;;;28.08;16.35;;;;;;;5.96;100.00;99321.06;5305341;33;34013;-81
2023/01/09 14:50:43;;;;;;;32.20;17.23;;;;;;;5.89;100.00;99312.06;5287471;33;35856;-80
2023/01/09 14:53:50;;;;;;;33.92;18.45;;;;;;;5.84;100.00;99306.41;5306964;33;33515;-81
2023/01/09 14:56:53;;;;;;;33.88;19.52;;;;;;;5.75;100.00;99312.81;5287209;33;32376;-82
2023/01/09 14:59:59;;;;;;;36.33;20.42;;;;;;;5.75;100.00;99318.13;5294993;33;34596;-82
2023/01/09 15:03:05;;;;;;;31.85;19.27;;;;;;;5.71;100.00;99315.00;5292646;33;34056;-82
2023/01/09 15:06:14;;;;;;;34.42;20.50;;;;;;;5.75;100.00;99321.63;5307793;33;34649;-80
2023/01/09 15:09:32;;;;;;;37.25;20.75;;;;;;;5.81;100.00;99314.78;5309508;33;33711;-80
2023/01/09 15:12:34;;;;;;;33.00;18.25;;;;;;;5.81;100.00;99320.13;5307694;33;34140;-80
2023/01/09 15:15:44;;;;;;;35.70;19.87;;;;;;;5.86;100.00;99317.75;5290318;33;34813;-81
2023/01/09 15:19:07;;;;;;;34.20;19.02;;;;;;;5.98;100.00;99316.41;5297635;33;34174;-81
2023/01/09 15:22:29;;;;;;;32.05;19.02;;;;;;;5.97;100.00;99320.09;5291939;33;34961;-81
2023/01/09 15:25:36;;;;;;;35.25;21.10;;;;;;;5.87;100.00;99320.25;5307229;33;34398;-80
2023/01/09 15:28:42;;;;;;;31.98;18.23;;;;;;;5.87;100.00;99317.56;5307631;33;34127;-80
2023/01/09 15:31:48;;;;;;;33.85;20.60;;;;;;;5.90;100.00;99325.25;5307086;33;33856;-81
2023/01/09 15:34:54;;;;;;;31.73;18.48;;;;;;;5.84;100.00;99327.78;5307123;33;33642;-81
2023/01/09 15:37:57;;;;;;;31.27;18.10;;;;;;;5.90;100.00;99325.25;5294262;33;32422;-81
2023/01/09 15:41:10;;;;;;;31.17;19.75;;;;;;;5.90;100.00;99324.41;5307639;33;34608;-81
2023/01/09 15:44:21;;;;;;;33.03;19.20;;;;;;;5.91;100.00;99321.59;5307091;33;35041;-82
2023/01/09 15:47:28;;;;;;;32.95;20.50;;;;;;;5.85;100.00;99324.94;5302628;33;34812;-81
2023/01/09 15:50:30;;;;;;;32.65;18.87;;;;;;;5.86;100.00;99325.78;5305871;33;33832;-81
2023/01/09 15:53:33;;;;;;;35.47;21.02;;;;;;;5.75;100.00;99310.97;5307150;33;34095;-81
2023/01/09 15:56:38;;;;;;;33.42;20.17;;;;;;;5.67;100.00;99306.50;5303679;33;33789;-81
2023/01/09 15:59:41;;;;;;;32.80;18.90;;;;;;;5.76;100.00;99315.31;5307132;33;34355;-81
2023/01/09 16:06:12;;;;;;;37.38;22.62;;;;;;;5.64;100.00;99290.78;5290642;33;33738;-81
2023/01/09 16:09:27;;;;;;;36.60;20.58;;;;;;;5.63;100.00;99294.47;5279142;33;32417;-81
2023/01/09 16:12:30;;;;;;;35.33;20.98;;;;;;;5.65;100.00;99286.31;5299004;33;34266;-80
2023/01/09 16:15:33;;;;;;;36.60;20.08;;;;;;;5.62;100.00;99281.31;5301487;33;34124;-80
2023/01/09 16:18:48;;;;;;;38.00;21.17;;;;;;;5.61;100.00;99277.78;5285570;33;33591;-81
2023/01/09 16:21:56;;;;;;;38.08;22.55;;;;;;;5.63;100.00;99275.78;5292802;33;34224;-81
2023/01/09 16:25:20;;;;;;;40.00;24.02;;;;;;;5.63;100.00;99274.97;5305370;33;33696;-81
2023/01/09 16:28:29;;;;;;;40.35;23.85;;;;;;;5.62;100.00;99274.12;5306075;33;34462;-81
2023/01/09 16:31:32;;;;;;;35.85;21.30;;;;;;;5.59;100.00;99274.47;5307342;33;34644;-81
2023/01/09 16:34:35;;;;;;;38.47;21.85;;;;;;;5.56;100.00;99282.84;5293997;33;34981;-81
2023/01/09 16:37:39;;;;;;;42.33;25.70;;;;;;;5.52;100.00;99278.84;5308719;33;33527;-82
2023/01/09 16:44:36;;;;;;;34.65;20.60;;;;;;;5.62;100.00;99268.78;5283706;33;33705;-80
2023/01/09 16:47:39;;;;;;;35.88;21.27;;;;;;;5.63;100.00;99270.44;5293596;33;32434;-81
2023/01/09 16:50:43;;;;;;;35.17;20.27;;;;;;;5.57;100.00;99270.31;5308942;33;34371;-81
2023/01/09 16:53:46;;;;;;;38.72;23.10;;;;;;;5.56;100.00;99264.16;5308578;33;35006;-81
2023/01/09 16:56:53;;;;;;;37.90;23.40;;;;;;;5.64;100.00;99263.25;5309083;33;34010;-81
